Time;durP1;ratioP1;P1;durP2;ratioP2;P2;SDS_P1;SDS_P2;PMS_P1;PMS_P2;Temp;Humidity;BMP_temperature;BMP_pressure;BME280_temperature;BME280_humidity;BME280_pressure;Samples;Min_cycle;Max_cycle;Signal;HPM_P1;HPM_P2
2022/10/25 00:06:01;;;;;;;24.50;15.60;;;;;;;15.93;100.00;100055.05;641764;1310;139419;-83
2022/10/25 00:21:05;;;;;;;41.60;20.60;;;;;;;15.80;100.00;100057.65;642727;1296;140182;-83
2022/10/25 00:36:15;;;;;;;34.90;15.70;;;;;;;15.75;100.00;100050.85;641284;1284;139456;-83
2022/10/25 00:51:20;;;;;;;44.50;22.20;;;;;;;15.79;100.00;100043.08;641583;1310;139743;-83
2022/10/25 01:06:33;;;;;;;31.70;18.10;;;;;;;15.66;100.00;100032.98;641145;1309;139417;-83
2022/10/25 01:21:48;;;;;;;32.20;20.30;;;;;;;15.68;100.00;100024.34;641722;1309;140577;-83
2022/10/25 01:37:02;;;;;;;21.20;11.40;;;;;;;15.61;100.00;100021.02;641772;1294;139532;-81
2022/10/25 01:52:06;;;;;;;21.20;10.10;;;;;;;15.55;100.00;100025.10;643136;1310;140601;-81
2022/10/25 02:07:12;;;;;;;21.40;10.70;;;;;;;15.36;100.00;100018.66;643461;1309;139547;-82
2022/10/25 02:22:19;;;;;;;18.40;12.00;;;;;;;15.21;100.00;100021.66;642176;1307;140810;-82
2022/10/25 02:37:22;;;;;;;24.30;13.60;;;;;;;15.07;100.00;100016.30;641362;1306;141046;-83
2022/10/25 02:52:25;;;;;;;22.30;12.80;;;;;;;14.96;100.00;100005.77;641169;1296;139730;-82
2022/10/25 03:07:29;;;;;;;27.90;16.20;;;;;;;14.88;100.00;100008.25;641395;1309;139795;-82
2022/10/25 03:22:32;;;;;;;22.00;12.10;;;;;;;14.72;100.00;100014.73;641314;1304;139644;-82
2022/10/25 03:37:35;;;;;;;24.70;16.00;;;;;;;14.61;100.00;100009.75;641009;1310;139406;-83
2022/10/25 03:52:39;;;;;;;19.40;13.40;;;;;;;14.52;100.00;100005.83;641934;1309;140344;-82
2022/10/25 04:07:42;;;;;;;26.10;14.80;;;;;;;14.49;100.00;100001.88;642250;1308;140263;-82
2022/10/25 04:22:52;;;;;;;28.90;15.70;;;;;;;14.48;100.00;99998.98;643132;1301;139564;-81
2022/10/25 04:37:56;;;;;;;29.90;16.90;;;;;;;14.50;100.00;99995.31;645446;1310;139294;-82
2022/10/25 04:52:59;;;;;;;27.10;16.50;;;;;;;14.45;100.00;99994.01;647312;1310;139720;-82
2022/10/25 05:08:02;;;;;;;24.30;14.40;;;;;;;14.46;100.00;99993.16;642788;1288;139855;-81
2022/10/25 05:23:06;;;;;;;32.00;17.50;;;;;;;14.45;100.00;99994.56;641688;1304;139703;-81
2022/10/25 05:38:09;;;;;;;33.40;19.50;;;;;;;14.36;100.00;100012.65;641272;1301;139497;-81
2022/10/25 05:53:12;;;;;;;27.70;17.10;;;;;;;14.43;100.00;100007.14;640627;1301;1086076;-81
2022/10/25 06:08:15;;;;;;;26.30;18.50;;;;;;;14.52;100.00;100030.23;642162;1302;140595;-81
2022/10/25 06:23:19;;;;;;;30.80;17.70;;;;;;;14.69;100.00;100047.63;642062;1305;139936;-81
2022/10/25 06:38:24;;;;;;;25.60;17.60;;;;;;;14.74;100.00;100069.05;641423;1294;139546;-81
2022/10/25 06:53:28;;;;;;;27.80;17.30;;;;;;;14.67;100.00;100072.52;641616;1302;140455;-81
2022/10/25 07:08:34;;;;;;;30.20;17.60;;;;;;;14.72;100.00;100085.33;641504;1298;139160;-83
2022/10/25 07:23:41;;;;;;;29.90;19.70;;;;;;;14.76;100.00;100092.57;641826;1309;140524;-79
2022/10/25 07:38:45;;;;;;;23.40;14.70;;;;;;;15.11;100.00;100100.98;640381;1302;142856;-79
2022/10/25 07:53:48;;;;;;;32.50;18.60;;;;;;;15.38;100.00;100097.70;640419;1297;140132;-79
2022/10/25 08:08:52;;;;;;;24.10;14.60;;;;;;;15.37;100.00;100107.00;641096;1301;139700;-80
2022/10/25 08:23:55;;;;;;;23.90;14.50;;;;;;;15.39;100.00;100109.93;639902;1296;139671;-80
2022/10/25 08:39:01;;;;;;;27.50;18.00;;;;;;;15.60;100.00;100109.64;643455;1285;141042;-80
2022/10/25 08:54:33;;;;;;;24.80;14.60;;;;;;;15.92;100.00;100115.48;643249;1310;140579;-83
2022/10/25 09:09:53;;;;;;;21.60;15.80;;;;;;;15.91;100.00;100118.33;643584;1289;139524;-81
2022/10/25 09:25:08;;;;;;;31.80;16.70;;;;;;;15.93;100.00;100124.55;643080;1295;139638;-81
2022/10/25 09:40:18;;;;;;;21.10;14.00;;;;;;;15.97;100.00;100134.34;642090;1309;139712;-82
2022/10/25 09:55:31;;;;;;;20.90;13.40;;;;;;;16.53;100.00;100132.46;642617;1309;139408;-82
2022/10/25 10:10:36;;;;;;;20.30;12.90;;;;;;;16.53;100.00;100142.38;642632;1302;139855;-81
2022/10/25 10:25:44;;;;;;;15.30;10.10;;;;;;;16.40;100.00;100139.25;648832;1295;140655;-82
2022/10/25 10:41:11;;;;;;;17.40;10.80;;;;;;;16.33;100.00;100141.52;644796;1310;139682;-81
2022/10/25 10:56:22;;;;;;;24.90;15.30;;;;;;;16.45;100.00;100142.88;642028;1294;139629;-82
2022/10/25 11:11:25;;;;;;;45.70;17.70;;;;;;;16.72;100.00;100147.60;643829;1297;139842;-82
2022/10/25 11:26:50;;;;;;;28.20;15.60;;;;;;;16.98;100.00;100148.39;641204;1310;139441;-82
2022/10/25 11:42:08;;;;;;;26.00;17.50;;;;;;;17.05;100.00;100145.94;644152;1300;139665;-81
2022/10/25 11:57:37;;;;;;;22.10;15.10;;;;;;;16.93;100.00;100151.41;641541;1286;140721;-81
2022/10/25 12:12:44;;;;;;;20.40;12.70;;;;;;;17.01;100.00;100160.69;641145;1310;139575;-81
2022/10/25 12:27:59;;;;;;;16.80;9.90;;;;;;;17.21;100.00;100170.52;641838;1295;140865;-81
2022/10/25 12:43:30;;;;;;;15.00;7.50;;;;;;;17.65;100.00;100174.63;641416;1295;139334;-81
2022/10/25 12:59:11;;;;;;;19.90;7.50;;;;;;;17.73;100.00;100184.23;643005;1284;139757;-80
2022/10/25 13:14:30;;;;;;;15.60;6.40;;;;;;;19.78;99.58;100186.89;643669;1302;139234;-81
2022/10/25 13:30:05;;;;;;;14.00;8.10;;;;;;;19.87;99.26;100185.19;641595;1294;139643;-81
2022/10/25 13:45:24;;;;;;;13.40;7.80;;;;;;;17.93;100.00;100188.71;646874;1301;140409;-82
2022/10/25 14:00:37;;;;;;;19.70;11.90;;;;;;;17.81;100.00;100191.04;650011;1294;139788;-81
2022/10/25 14:15:48;;;;;;;31.00;18.30;;;;;;;18.10;100.00;100196.27;644512;1299;139765;-81
2022/10/25 14:30:55;;;;;;;18.20;9.40;;;;;;;18.54;99.94;100201.09;643756;1296;139473;-82
2022/10/25 14:46:16;;;;;;;22.70;10.80;;;;;;;17.02;100.00;100194.67;642218;1294;139661;-83
2022/10/25 15:01:21;;;;;;;66.80;40.20;;;;;;;16.56;100.00;100208.27;642497;1302;139887;-82
2022/10/25 15:16:30;;;;;;;40.50;21.40;;;;;;;16.45;100.00;100223.31;641223;1308;139562;-82
2022/10/25 15:31:33;;;;;;;;;;;;;;;16.24;100.00;100226.30;641463;1310;139614;-82
2022/10/25 15:46:37;;;;;;;88.60;55.00;;;;;;;15.83;100.00;100232.68;640695;1301;125795;-81
2022/10/25 16:01:44;;;;;;;51.50;28.60;;;;;;;15.49;100.00;100243.70;641932;1309;139324;-82
2022/10/25 16:16:48;;;;;;;67.40;39.70;;;;;;;15.38;100.00;100257.44;641618;1310;139471;-81
2022/10/25 16:31:52;;;;;;;50.40;29.40;;;;;;;15.22;100.00;100274.55;641919;1296;139382;-82
2022/10/25 16:46:56;;;;;;;47.90;28.60;;;;;;;15.34;100.00;100276.02;641992;1307;139779;-81
2022/10/25 17:01:59;;;;;;;60.00;32.70;;;;;;;15.40;100.00;100280.98;643078;1287;139608;-81
2022/10/25 17:17:03;;;;;;;49.50;28.70;;;;;;;15.32;100.00;100283.88;641279;1295;140880;-81
2022/10/25 17:32:07;;;;;;;48.80;27.80;;;;;;;15.25;100.00;100291.48;641225;1310;139466;-81
2022/10/25 17:47:13;;;;;;;50.00;25.70;;;;;;;15.16;100.00;100306.54;641602;1296;140642;-82
2022/10/25 18:02:17;;;;;;;35.00;22.10;;;;;;;15.01;100.00;100304.08;640758;1295;1184004;-80
2022/10/25 18:17:20;;;;;;;56.90;27.00;;;;;;;14.85;100.00;100318.42;648060;1296;139948;-81
2022/10/25 18:32:27;;;;;;;35.50;20.90;;;;;;;14.74;100.00;100325.00;643196;1302;139438;-81
2022/10/25 18:47:37;;;;;;;27.20;16.30;;;;;;;14.52;100.00;100328.70;643029;1298;140187;-81
2022/10/25 19:02:40;;;;;;;82.00;44.00;;;;;;;14.39;100.00;100342.02;645264;1307;139809;-80
2022/10/25 19:17:49;;;;;;;40.90;21.30;;;;;;;14.30;100.00;100355.73;640096;1302;140209;-81
2022/10/25 19:32:54;;;;;;;33.10;19.60;;;;;;;14.15;100.00;100376.63;642178;1310;139382;-81
2022/10/25 19:47:58;;;;;;;46.60;25.60;;;;;;;14.01;100.00;100394.19;642843;1301;140500;-81
2022/10/25 20:03:02;;;;;;;38.10;21.30;;;;;;;13.85;100.00;100402.52;642553;1302;140193;-82
2022/10/25 20:18:05;;;;;;;30.50;18.80;;;;;;;13.57;100.00;100408.80;643223;1302;139462;-81
2022/10/25 20:33:08;;;;;;;28.40;17.60;;;;;;;13.63;100.00;100413.45;642274;1309;139574;-81
2022/10/25 20:48:13;;;;;;;47.70;28.60;;;;;;;13.57;100.00;100416.48;640401;1288;139702;-81
2022/10/25 21:03:16;;;;;;;49.00;29.50;;;;;;;13.54;100.00;100410.64;641108;1295;139756;-81
2022/10/25 21:18:19;;;;;;;46.80;22.20;;;;;;;13.63;100.00;100413.06;642453;1310;139490;-81
2022/10/25 21:33:22;;;;;;;37.50;18.70;;;;;;;13.62;100.00;100416.14;641465;1308;140306;-81
2022/10/25 21:48:26;;;;;;;28.70;17.20;;;;;;;13.57;100.00;100419.46;641433;1302;139500;-81
2022/10/25 22:03:29;;;;;;;33.90;18.00;;;;;;;13.50;100.00;100428.45;640818;1294;139676;-81
2022/10/25 22:18:33;;;;;;;31.50;17.70;;;;;;;13.45;100.00;100425.77;641783;1310;139887;-81
2022/10/25 22:33:37;;;;;;;26.10;16.00;;;;;;;13.37;100.00;100420.71;641304;1303;140526;-81
2022/10/25 22:48:42;;;;;;;36.40;21.30;;;;;;;13.34;100.00;100435.02;641974;1296;140183;-81
2022/10/25 23:03:53;;;;;;;66.90;38.40;;;;;;;13.09;100.00;100447.27;640386;1308;139970;-81
2022/10/25 23:18:56;;;;;;;37.10;19.40;;;;;;;12.81;100.00;100456.42;641941;1301;139406;-81
2022/10/25 23:34:00;;;;;;;36.30;19.10;;;;;;;12.61;100.00;100480.75;642179;1309;139735;-81
2022/10/25 23:49:03;;;;;;;41.40;22.90;;;;;;;12.49;100.00;100483.13;642352;1294;139543;-80
